Terminal Aerodrome Forecast
Issued by NWS

Home | Current Version | Previous Version | Text Only | Print | Product List | Glossary On
Versions: 1 2 3 4 5 6 7 8 9 10 11 12 13 14
000
FTUS44 KOUN 241137 CCA
TAFWWR
TAF COR
KWWR 241137Z 2412/2512 22003KT 5SM BR SCT250
      TEMPO 2412/2414 3/4SM BR VV004
     FM241500 19008KT P6SM SCT250=

USA.gov is the U.S. government's official web portal to all federal, state and local government web resources and services.